Time;durP1;ratioP1;P1;durP2;ratioP2;P2;SDS_P1;SDS_P2;PMS_P1;PMS_P2;Temp;Humidity;BMP_temperature;BMP_pressure;BME280_temperature;BME280_humidity;BME280_pressure;Samples;Min_cycle;Max_cycle;Signal;HPM_P1;HPM_P2
2022/09/08 00:01:23;;;;;;;4.95;2.88;;;;;;;;;;5045164;28;20457;-64
2022/09/08 00:03:49;;;;;;;7.32;2.92;;;;;;;;;;5045566;28;20032;-64
2022/09/08 00:06:16;;;;;;;8.68;3.47;;;;;;;;;;5045304;28;20407;-64
2022/09/08 00:08:43;;;;;;;4.80;2.70;;;;;;;;;;5045039;28;20450;-64
2022/09/08 00:11:10;;;;;;;5.82;3.33;;;;;;;;;;5044707;28;20396;-65
2022/09/08 00:13:38;;;;;;;7.32;3.25;;;;;;;;;;5027139;28;20319;-64
2022/09/08 00:16:05;;;;;;;5.40;2.63;;;;;;;;;;5026761;28;20338;-64
2022/09/08 00:18:30;;;;;;;6.18;3.15;;;;;;;;;;5046809;28;20319;-64
2022/09/08 00:20:56;;;;;;;5.30;3.05;;;;;;;;;;5044791;28;20394;-64
2022/09/08 00:23:21;;;;;;;4.80;2.88;;;;;;;;;;5045030;28;20451;-64
2022/09/08 00:25:47;;;;;;;6.15;3.22;;;;;;;;;;5044820;28;20377;-64
2022/09/08 00:28:13;;;;;;;3.83;2.47;;;;;;;;;;5044798;28;20027;-64
2022/09/08 00:30:38;;;;;;;7.53;3.65;;;;;;;;;;5044697;28;20051;-65
2022/09/08 00:33:04;;;;;;;5.65;2.65;;;;;;;;;;5044780;28;20059;-64
2022/09/08 00:35:29;;;;;;;8.57;3.53;;;;;;;;;;5046323;28;20419;-64
2022/09/08 00:37:54;;;;;;;6.90;3.42;;;;;;;;;;5044630;28;20355;-64
2022/09/08 00:40:21;;;;;;;5.47;3.13;;;;;;;;;;5046089;28;20445;-64
2022/09/08 00:42:47;;;;;;;7.03;3.58;;;;;;;;;;5026133;28;20023;-64
2022/09/08 00:45:19;;;;;;;6.68;3.25;;;;;;;;;;5044307;28;20456;-64
2022/09/08 00:48:10;;;;;;;5.65;3.10;;;;;;;;;;5044506;28;20399;-64
2022/09/08 00:50:35;;;;;;;7.68;3.17;;;;;;;;;;5026334;28;20039;-64
2022/09/08 00:53:04;;;;;;;7.45;3.22;;;;;;;;;;5044124;28;20020;-64
2022/09/08 00:55:33;;;;;;;5.60;2.90;;;;;;;;;;5026102;28;20461;-64
2022/09/08 00:57:58;;;;;;;10.82;2.85;;;;;;;;;;5026243;28;20098;-64
2022/09/08 01:00:24;;;;;;;9.05;3.47;;;;;;;;;;5044082;28;20085;-64
2022/09/08 01:02:50;;;;;;;5.22;2.50;;;;;;;;;;5035214;28;20092;-64
2022/09/08 01:05:25;;;;;;;7.15;3.15;;;;;;;;;;5024557;28;20441;-64
2022/09/08 01:13:41;;;;;;;8.25;3.28;;;;;;;;;;5009696;28;20128;-65
2022/09/08 01:16:07;;;;;;;8.65;3.85;;;;;;;;;;5024564;28;20501;-64
2022/09/08 01:18:34;;;;;;;6.53;3.22;;;;;;;;;;5023779;28;20425;-64
2022/09/08 01:21:07;;;;;;;10.38;3.08;;;;;;;;;;5025848;28;20312;-64
2022/09/08 01:23:46;;;;;;;8.98;3.83;;;;;;;;;;5005411;28;20335;-64
2022/09/08 01:26:34;;;;;;;7.78;3.67;;;;;;;;;;5006121;28;20473;-65
2022/09/08 01:29:01;;;;;;;7.70;3.83;;;;;;;;;;5024748;28;20553;-64
2022/09/08 01:31:27;;;;;;;8.80;3.25;;;;;;;;;;5005792;28;20031;-64
2022/09/08 01:33:53;;;;;;;6.43;3.10;;;;;;;;;;5005237;28;20125;-64
2022/09/08 01:36:19;;;;;;;6.07;2.88;;;;;;;;;;5024507;28;20317;-64
2022/09/08 01:38:45;;;;;;;7.68;3.75;;;;;;;;;;5023201;28;20032;-64
2022/09/08 01:41:10;;;;;;;6.43;3.70;;;;;;;;;;5025466;28;20040;-64
2022/09/08 01:43:36;;;;;;;6.53;3.10;;;;;;;;;;5005298;28;20323;-64
2022/09/08 01:46:02;;;;;;;8.57;3.63;;;;;;;;;;5023258;28;20369;-64
2022/09/08 01:48:27;;;;;;;7.80;3.15;;;;;;;;;;5023263;28;20410;-64
2022/09/08 01:50:58;;;;;;;7.50;3.28;;;;;;;;;;5024311;28;20028;-64
2022/09/08 01:53:23;;;;;;;6.05;3.42;;;;;;;;;;5023241;28;20319;-64
2022/09/08 01:55:48;;;;;;;6.65;3.60;;;;;;;;;;5023345;28;20467;-64
2022/09/08 01:58:14;;;;;;;8.07;3.70;;;;;;;;;;5023738;28;20692;-65
2022/09/08 02:00:40;;;;;;;7.25;3.22;;;;;;;;;;5024046;28;20502;-64
2022/09/08 02:03:06;;;;;;;9.48;3.92;;;;;;;;;;5023089;28;20323;-64
2022/09/08 02:05:31;;;;;;;7.55;3.53;;;;;;;;;;5023412;28;20396;-64
2022/09/08 02:07:56;;;;;;;7.05;3.83;;;;;;;;;;5023203;28;20047;-64
2022/09/08 02:10:22;;;;;;;9.02;3.33;;;;;;;;;;5023189;28;20517;-64
2022/09/08 02:12:47;;;;;;;8.95;4.20;;;;;;;;;;5022993;28;20350;-64
2022/09/08 02:15:13;;;;;;;7.45;3.53;;;;;;;;;;5023406;28;20338;-64
2022/09/08 02:17:38;;;;;;;9.55;4.07;;;;;;;;;;5024671;28;20093;-64
2022/09/08 02:20:04;;;;;;;8.00;3.63;;;;;;;;;;5024680;28;20527;-64
2022/09/08 02:22:30;;;;;;;10.68;3.85;;;;;;;;;;5028733;28;20545;-64
2022/09/08 02:24:55;;;;;;;8.73;3.38;;;;;;;;;;5027032;28;20410;-64
2022/09/08 02:27:21;;;;;;;7.10;3.40;;;;;;;;;;5027203;28;20028;-64
2022/09/08 02:29:46;;;;;;;7.03;4.43;;;;;;;;;;5026885;28;20050;-65
2022/09/08 02:32:12;;;;;;;7.43;3.13;;;;;;;;;;5027105;28;20032;-64
2022/09/08 02:34:37;;;;;;;10.48;4.72;;;;;;;;;;5028966;28;20374;-64
2022/09/08 02:37:02;;;;;;;10.60;3.78;;;;;;;;;;5027679;28;20395;-64
2022/09/08 02:39:28;;;;;;;6.85;3.80;;;;;;;;;;5026794;28;20481;-64
2022/09/08 02:41:54;;;;;;;9.50;4.18;;;;;;;;;;5028538;28;20024;-64
2022/09/08 02:44:19;;;;;;;8.68;4.25;;;;;;;;;;5026480;28;20429;-64
2022/09/08 02:46:44;;;;;;;8.50;3.70;;;;;;;;;;5026917;28;20345;-64
2022/09/08 02:49:10;;;;;;;8.82;3.80;;;;;;;;;;5026510;28;20413;-64
2022/09/08 02:51:36;;;;;;;7.22;3.78;;;;;;;;;;5026614;28;20453;-64
2022/09/08 02:54:01;;;;;;;7.10;4.07;;;;;;;;;;5026749;28;20055;-64
2022/09/08 02:56:27;;;;;;;8.73;3.97;;;;;;;;;;5026487;28;20430;-64
2022/09/08 02:58:54;;;;;;;8.88;4.47;;;;;;;;;;5026340;28;20430;-64
2022/09/08 03:01:19;;;;;;;7.47;3.30;;;;;;;;;;5026220;28;20020;-64
2022/09/08 03:03:46;;;;;;;5.40;3.47;;;;;;;;;;5026365;28;20058;-64
2022/09/08 03:06:11;;;;;;;7.75;3.95;;;;;;;;;;5026488;28;20435;-64
2022/09/08 03:08:37;;;;;;;10.73;3.97;;;;;;;;;;5026483;28;20519;-64
2022/09/08 03:11:03;;;;;;;8.50;4.03;;;;;;;;;;5025838;28;20418;-64
2022/09/08 03:13:28;;;;;;;12.52;4.35;;;;;;;;;;5027701;28;20480;-64
2022/09/08 03:15:54;;;;;;;13.60;4.75;;;;;;;;;;5025845;28;20461;-64
2022/09/08 03:18:20;;;;;;;7.95;4.15;;;;;;;;;;5027047;28;20417;-65
2022/09/08 03:20:45;;;;;;;8.77;4.50;;;;;;;;;;5026127;28;20385;-64
2022/09/08 03:23:18;;;;;;;7.93;4.00;;;;;;;;;;5027709;28;20423;-64
2022/09/08 03:25:44;;;;;;;8.93;4.43;;;;;;;;;;5026487;28;20366;-64
2022/09/08 03:28:17;;;;;;;7.13;3.55;;;;;;;;;;5025715;28;20411;-64
2022/09/08 03:30:42;;;;;;;8.57;3.78;;;;;;;;;;5026907;28;20461;-64
2022/09/08 03:33:07;;;;;;;7.72;3.90;;;;;;;;;;5025807;28;20339;-64
2022/09/08 03:35:35;;;;;;;8.93;4.30;;;;;;;;;;5025528;28;20517;-64
2022/09/08 03:38:00;;;;;;;8.65;3.97;;;;;;;;;;5026123;28;20051;-64
2022/09/08 03:40:26;;;;;;;9.45;4.10;;;;;;;;;;5025547;28;20032;-65
2022/09/08 03:42:51;;;;;;;7.70;3.85;;;;;;;;;;5025501;28;20448;-65
2022/09/08 03:45:17;;;;;;;10.48;4.70;;;;;;;;;;5025647;28;20306;-64
2022/09/08 03:47:43;;;;;;;10.52;3.95;;;;;;;;;;5025399;28;20342;-64
2022/09/08 03:50:10;;;;;;;7.30;3.75;;;;;;;;;;5025551;28;20488;-64
2022/09/08 03:52:35;;;;;;;12.30;3.92;;;;;;;;;;5025461;28;20438;-64
2022/09/08 03:55:01;;;;;;;10.70;4.50;;;;;;;;;;5025912;28;20423;-64
2022/09/08 03:57:27;;;;;;;6.78;3.85;;;;;;;;;;5025224;28;20448;-64
2022/09/08 03:59:56;;;;;;;7.25;4.30;;;;;;;;;;5025168;28;20380;-64
2022/09/08 04:02:23;;;;;;;9.52;4.50;;;;;;;;;;5024965;28;20358;-65
2022/09/08 04:04:50;;;;;;;10.48;4.38;;;;;;;;;;5025664;28;20336;-64
2022/09/08 04:07:17;;;;;;;8.20;4.55;;;;;;;;;;5024941;28;20426;-64
2022/09/08 04:09:42;;;;;;;8.75;4.28;;;;;;;;;;5024404;28;20463;-64
2022/09/08 04:12:08;;;;;;;12.55;4.28;;;;;;;;;;5025060;28;20448;-64
2022/09/08 04:14:34;;;;;;;13.75;4.68;;;;;;;;;;5024890;28;20453;-64
2022/09/08 04:16:59;;;;;;;10.68;4.03;;;;;;;;;;5025133;28;20333;-64
2022/09/08 04:19:24;;;;;;;11.82;4.38;;;;;;;;;;5024809;28;20517;-64
2022/09/08 04:21:50;;;;;;;10.95;4.07;;;;;;;;;;5024717;28;20513;-64
2022/09/08 04:24:15;;;;;;;9.25;3.78;;;;;;;;;;5024825;28;20366;-64
2022/09/08 04:26:41;;;;;;;6.85;3.40;;;;;;;;;;5024635;28;20362;-65
2022/09/08 04:29:07;;;;;;;7.40;4.30;;;;;;;;;;5025143;28;20055;-64
2022/09/08 04:31:35;;;;;;;9.02;3.90;;;;;;;;;;5025666;28;20405;-64
2022/09/08 04:34:00;;;;;;;10.85;4.40;;;;;;;;;;5024397;28;20410;-64
2022/09/08 04:36:26;;;;;;;9.80;3.92;;;;;;;;;;5025458;28;20397;-65
2022/09/08 04:38:53;;;;;;;12.55;4.68;;;;;;;;;;5024186;28;20346;-64
2022/09/08 04:41:18;;;;;;;10.05;4.10;;;;;;;;;;5006295;28;20334;-64
2022/09/08 04:43:44;;;;;;;7.05;3.92;;;;;;;;;;5023140;28;20434;-64
2022/09/08 04:46:11;;;;;;;10.27;4.68;;;;;;;;;;5025165;28;20453;-65
2022/09/08 04:48:38;;;;;;;9.82;4.07;;;;;;;;;;5023955;28;20427;-64
2022/09/08 04:51:04;;;;;;;8.38;3.67;;;;;;;;;;5023860;28;20435;-65
2022/09/08 04:53:32;;;;;;;9.77;4.80;;;;;;;;;;5005593;28;20380;-65
2022/09/08 04:55:58;;;;;;;9.15;4.60;;;;;;;;;;5023512;28;20028;-65
2022/09/08 04:58:23;;;;;;;11.43;4.15;;;;;;;;;;5006359;28;20048;-64
2022/09/08 05:00:49;;;;;;;8.65;4.18;;;;;;;;;;5022777;28;20366;-64
2022/09/08 05:03:15;;;;;;;9.07;4.30;;;;;;;;;;5022877;28;20431;-64
2022/09/08 05:05:40;;;;;;;9.00;4.75;;;;;;;;;;5023781;28;20343;-64
2022/09/08 05:08:06;;;;;;;10.35;3.97;;;;;;;;;;5022283;28;20097;-64
2022/09/08 05:10:32;;;;;;;9.43;4.53;;;;;;;;;;5022742;28;20446;-64
2022/09/08 05:12:58;;;;;;;8.32;3.78;;;;;;;;;;5022951;28;20358;-65
2022/09/08 05:15:23;;;;;;;13.90;4.60;;;;;;;;;;5023495;28;20443;-64
2022/09/08 05:17:49;;;;;;;8.32;4.30;;;;;;;;;;5022183;28;20488;-64
2022/09/08 05:20:14;;;;;;;8.43;4.55;;;;;;;;;;5022280;28;20704;-64
2022/09/08 05:22:40;;;;;;;8.18;4.00;;;;;;;;;;5022666;28;20324;-64
2022/09/08 05:25:06;;;;;;;7.00;3.92;;;;;;;;;;5022843;28;20032;-65
2022/09/08 05:27:31;;;;;;;11.13;4.20;;;;;;;;;;5022017;28;20434;-64
2022/09/08 05:29:57;;;;;;;13.35;4.60;;;;;;;;;;5022085;28;20418;-64
2022/09/08 05:32:22;;;;;;;10.27;4.22;;;;;;;;;;5021896;28;20439;-64
2022/09/08 05:34:47;;;;;;;7.30;4.28;;;;;;;;;;5021908;28;20475;-64
2022/09/08 05:37:13;;;;;;;8.43;4.30;;;;;;;;;;5022221;28;20431;-64
2022/09/08 05:39:38;;;;;;;7.65;4.07;;;;;;;;;;5021817;28;20505;-65
2022/09/08 05:42:04;;;;;;;9.07;4.55;;;;;;;;;;5022326;28;20446;-64
2022/09/08 05:44:30;;;;;;;8.95;4.40;;;;;;;;;;5021778;28;20346;-65
2022/09/08 05:46:55;;;;;;;10.10;4.53;;;;;;;;;;5022959;28;20339;-64
2022/09/08 05:49:21;;;;;;;14.20;4.82;;;;;;;;;;5024346;28;20331;-64
2022/09/08 05:51:47;;;;;;;9.30;4.30;;;;;;;;;;5023333;28;20315;-64
2022/09/08 05:54:12;;;;;;;10.95;4.15;;;;;;;;;;5023100;28;20473;-64
2022/09/08 05:56:38;;;;;;;11.32;4.30;;;;;;;;;;5024957;28;20470;-64
2022/09/08 05:59:03;;;;;;;6.75;4.35;;;;;;;;;;5023438;28;20354;-65
2022/09/08 06:01:32;;;;;;;9.30;4.32;;;;;;;;;;5023337;28;20488;-64
2022/09/08 06:03:59;;;;;;;11.65;4.30;;;;;;;;;;5023306;28;20434;-64
2022/09/08 06:06:25;;;;;;;6.97;4.22;;;;;;;;;;5022858;28;20020;-64
2022/09/08 06:08:52;;;;;;;8.10;4.25;;;;;;;;;;5019024;28;20033;-64
2022/09/08 06:11:17;;;;;;;8.60;4.93;;;;;;;;;;5019602;28;20370;-64
2022/09/08 06:13:42;;;;;;;8.20;3.80;;;;;;;;;;5023112;28;20050;-64
2022/09/08 06:16:11;;;;;;;12.07;4.50;;;;;;;;;;5022902;28;20111;-65
2022/09/08 06:18:37;;;;;;;;;;;;;;;;;;5024723;28;20085;-64
2022/09/08 06:21:07;;;;;;;14.45;4.50;;;;;;;;;;5023153;28;19912;-65
2022/09/08 06:23:32;;;;;;;7.43;4.00;;;;;;;;;;5023908;28;20446;-65
2022/09/08 06:25:58;;;;;;;10.02;5.03;;;;;;;;;;5023488;28;20496;-64
2022/09/08 06:28:29;;;;;;;9.60;4.22;;;;;;;;;;5023747;28;20423;-64
2022/09/08 06:30:55;;;;;;;8.48;3.63;;;;;;;;;;5004326;28;20521;-65
2022/09/08 06:33:41;;;;;;;7.97;4.20;;;;;;;;;;5022538;28;20323;-65
2022/09/08 06:36:12;;;;;;;7.53;4.22;;;;;;;;;;5021524;28;20520;-64
2022/09/08 06:38:43;;;;;;;7.63;4.35;;;;;;;;;;5021865;28;20461;-64
2022/09/08 06:41:18;;;;;;;16.98;4.95;;;;;;;;;;5021727;28;20346;-64
2022/09/08 06:43:46;;;;;;;14.52;5.07;;;;;;;;;;5003998;28;20020;-64
2022/09/08 06:46:17;;;;;;;7.80;4.32;;;;;;;;;;5003700;28;20450;-64
2022/09/08 06:48:43;;;;;;;9.10;4.38;;;;;;;;;;5004228;28;20424;-64
2022/09/08 06:51:31;;;;;;;6.15;3.80;;;;;;;;;;5021518;28;20342;-64
2022/09/08 06:54:09;;;;;;;8.75;4.20;;;;;;;;;;5003500;28;20449;-64
2022/09/08 06:56:53;;;;;;;9.40;4.45;;;;;;;;;;5021541;28;20351;-65
2022/09/08 06:59:24;;;;;;;9.18;4.22;;;;;;;;;;5021291;28;20389;-64
2022/09/08 07:02:02;;;;;;;8.18;4.18;;;;;;;;;;5022122;28;20351;-64
2022/09/08 07:04:43;;;;;;;8.15;4.60;;;;;;;;;;5021636;28;20397;-64
2022/09/08 07:07:30;;;;;;;7.13;4.00;;;;;;;;;;5023511;28;20493;-64
2022/09/08 07:10:08;;;;;;;6.88;4.07;;;;;;;;;;5024779;28;20055;-64
2022/09/08 07:13:10;;;;;;;10.35;4.60;;;;;;;;;;5007119;28;20501;-64
2022/09/08 07:15:49;;;;;;;8.57;4.45;;;;;;;;;;5024881;28;20345;-65
2022/09/08 07:18:20;;;;;;;10.27;4.22;;;;;;;;;;5027163;28;20028;-64
2022/09/08 07:20:46;;;;;;;6.00;3.78;;;;;;;;;;5007667;28;20524;-64
2022/09/08 07:23:24;;;;;;;6.95;4.10;;;;;;;;;;5025848;28;20532;-64
2022/09/08 07:26:22;;;;;;;7.07;4.65;;;;;;;;;;5007486;28;20658;-64
2022/09/08 07:28:50;;;;;;;7.93;4.20;;;;;;;;;;5011208;28;20414;-64
2022/09/08 07:31:19;;;;;;;8.32;4.00;;;;;;;;;;5007556;28;20270;-64
2022/09/08 07:33:46;;;;;;;7.53;4.40;;;;;;;;;;5026851;28;20489;-64
2022/09/08 07:36:30;;;;;;;8.18;4.57;;;;;;;;;;5007146;28;20494;-64
2022/09/08 07:38:57;;;;;;;9.40;3.95;;;;;;;;;;5025738;28;20446;-64
2022/09/08 07:41:46;;;;;;;6.53;3.55;;;;;;;;;;5007752;28;20466;-64
2022/09/08 07:44:13;;;;;;;;;;;;;;;;;;5008517;28;20450;-64
2022/09/08 07:46:50;;;;;;;6.57;4.07;;;;;;;;;;5025518;28;20342;-64
2022/09/08 07:49:28;;;;;;;8.27;3.90;;;;;;;;;;5025370;28;20461;-64
2022/09/08 07:52:03;;;;;;;7.10;3.88;;;;;;;;;;5025330;28;20450;-64
2022/09/08 07:54:34;;;;;;;8.07;3.85;;;;;;;;;;5008290;28;20032;-64
2022/09/08 07:57:28;;;;;;;7.05;4.57;;;;;;;;;;5027867;28;20607;-64
2022/09/08 08:00:08;;;;;;;10.45;3.90;;;;;;;;;;5026805;28;20412;-64
2022/09/08 08:03:18;;;;;;;9.20;4.18;;;;;;;;;;5025886;28;20049;-64
2022/09/08 08:05:48;;;;;;;7.28;3.97;;;;;;;;;;5026945;28;20430;-64
2022/09/08 08:08:35;;;;;;;5.75;3.28;;;;;;;;;;5007255;28;20446;-64
2022/09/08 08:11:24;;;;;;;7.53;3.50;;;;;;;;;;5025093;28;20504;-64
2022/09/08 08:14:08;;;;;;;6.93;3.17;;;;;;;;;;5009164;28;20474;-64
2022/09/08 08:16:39;;;;;;;10.30;4.30;;;;;;;;;;5026405;28;20346;-63
2022/09/08 08:19:23;;;;;;;6.35;3.47;;;;;;;;;;5025803;28;20437;-64
2022/09/08 08:21:55;;;;;;;6.78;3.55;;;;;;;;;;5025555;28;20028;-64
2022/09/08 08:24:44;;;;;;;6.25;3.63;;;;;;;;;;5007030;28;20024;-64
2022/09/08 08:27:13;;;;;;;7.38;4.18;;;;;;;;;;5025586;28;20438;-64
2022/09/08 08:29:40;;;;;;;6.22;3.80;;;;;;;;;;5025548;28;20363;-64
2022/09/08 08:32:14;;;;;;;6.68;3.65;;;;;;;;;;5007348;28;20474;-64
2022/09/08 08:34:49;;;;;;;6.18;3.60;;;;;;;;;;5007762;28;20447;-64
2022/09/08 08:37:21;;;;;;;6.95;3.88;;;;;;;;;;5025412;28;20047;-64
2022/09/08 08:39:49;;;;;;;5.38;3.33;;;;;;;;;;5006973;28;20449;-64
2022/09/08 08:42:24;;;;;;;7.28;3.90;;;;;;;;;;5007808;28;20127;-64
2022/09/08 08:45:06;;;;;;;6.75;3.55;;;;;;;;;;5024718;28;20028;-64
2022/09/08 08:47:55;;;;;;;9.25;3.97;;;;;;;;;;5024247;28;20024;-64
2022/09/08 08:50:30;;;;;;;5.70;3.53;;;;;;;;;;5023355;28;20391;-64
2022/09/08 08:53:05;;;;;;;7.18;3.42;;;;;;;;;;5005114;28;20027;-64
2022/09/08 08:55:40;;;;;;;6.15;3.55;;;;;;;;;;5023667;28;20350;-64
2022/09/08 08:58:46;;;;;;;6.80;3.53;;;;;;;;;;5006054;28;20523;-64
2022/09/08 09:01:27;;;;;;;7.32;3.58;;;;;;;;;;5005763;28;20039;-64
2022/09/08 09:04:26;;;;;;;5.43;3.13;;;;;;;;;;5024097;28;20107;-64
2022/09/08 09:07:01;;;;;;;5.35;2.95;;;;;;;;;;5005772;28;20392;-64
2022/09/08 09:09:41;;;;;;;4.95;3.45;;;;;;;;;;5024580;28;20430;-64
2022/09/08 09:12:21;;;;;;;9.88;4.00;;;;;;;;;;5005571;28;20499;-63
2022/09/08 09:15:14;;;;;;;7.38;3.72;;;;;;;;;;5023500;28;20486;-64
2022/09/08 09:17:51;;;;;;;9.27;3.30;;;;;;;;;;5025034;28;20619;-64
2022/09/08 09:20:29;;;;;;;5.40;3.28;;;;;;;;;;5023661;28;20459;-64
2022/09/08 09:22:59;;;;;;;6.60;3.83;;;;;;;;;;5005778;28;20438;-63
2022/09/08 09:25:34;;;;;;;4.72;3.00;;;;;;;;;;5005917;28;20434;-63
2022/09/08 09:28:27;;;;;;;3.88;2.92;;;;;;;;;;5024980;28;20354;-63
2022/09/08 09:31:14;;;;;;;11.20;3.33;;;;;;;;;;5023565;28;20167;-64
2022/09/08 09:33:58;;;;;;;7.20;3.65;;;;;;;;;;5023372;28;20407;-64
2022/09/08 09:36:36;;;;;;;6.93;3.20;;;;;;;;;;5024460;28;20446;-64
2022/09/08 09:39:46;;;;;;;5.40;3.47;;;;;;;;;;5023414;28;20101;-64
2022/09/08 09:42:23;;;;;;;6.15;3.15;;;;;;;;;;5006171;28;20101;-63
2022/09/08 09:45:13;;;;;;;6.32;3.10;;;;;;;;;;5023362;28;20389;-64
2022/09/08 09:48:06;;;;;;;5.60;3.17;;;;;;;;;;5005291;28;20061;-64
2022/09/08 09:50:33;;;;;;;5.03;3.38;;;;;;;;;;5023357;28;20454;-63
2022/09/08 09:53:17;;;;;;;7.68;3.97;;;;;;;;;;5023207;28;20503;-64
2022/09/08 09:56:20;;;;;;;6.68;2.85;;;;;;;;;;5023384;28;20055;-64
2022/09/08 09:58:56;;;;;;;5.63;3.00;;;;;;;;;;5023361;28;20374;-64
2022/09/08 10:01:30;;;;;;;5.65;3.25;;;;;;;;;;5004932;28;20455;-64
2022/09/08 10:04:28;;;;;;;5.97;3.53;;;;;;;;;;5023216;28;20454;-64
2022/09/08 10:07:19;;;;;;;8.90;3.03;;;;;;;;;;5003166;28;20442;-64
2022/09/08 10:10:18;;;;;;;7.07;2.97;;;;;;;;;;5001306;28;20479;-64
2022/09/08 10:13:02;;;;;;;5.28;3.15;;;;;;;;;;5004213;28;20486;-63
2022/09/08 10:15:49;;;;;;;6.32;3.30;;;;;;;;;;5002858;28;20421;-64
2022/09/08 10:18:34;;;;;;;6.15;3.45;;;;;;;;;;5003080;28;20346;-64
2022/09/08 10:21:27;;;;;;;5.32;3.28;;;;;;;;;;4985081;28;20086;-64
2022/09/08 10:24:04;;;;;;;4.95;2.75;;;;;;;;;;5003456;28;20435;-64
2022/09/08 10:26:41;;;;;;;5.00;3.40;;;;;;;;;;5002830;28;20611;-63
2022/09/08 10:29:23;;;;;;;4.45;3.40;;;;;;;;;;5001814;28;20389;-64
2022/09/08 10:32:28;;;;;;;6.88;3.22;;;;;;;;;;5001370;28;20032;-63
2022/09/08 10:35:19;;;;;;;4.78;2.95;;;;;;;;;;4971367;28;20494;-64
2022/09/08 10:37:50;;;;;;;7.88;3.20;;;;;;;;;;4998668;28;20328;-63
2022/09/08 10:41:00;;;;;;;5.80;3.13;;;;;;;;;;5002706;28;20386;-64
2022/09/08 10:43:37;;;;;;;7.18;3.05;;;;;;;;;;4929084;28;20403;-64
2022/09/08 10:46:24;;;;;;;5.20;3.60;;;;;;;;;;5007112;28;20326;-64
2022/09/08 10:48:54;;;;;;;4.43;2.85;;;;;;;;;;5006429;28;20300;-64
2022/09/08 10:51:36;;;;;;;6.03;3.47;;;;;;;;;;4987373;28;20489;-64
2022/09/08 10:54:17;;;;;;;8.38;3.47;;;;;;;;;;5007052;28;20024;-64
2022/09/08 10:56:45;;;;;;;4.80;3.30;;;;;;;;;;5004589;28;20366;-64
2022/09/08 10:59:35;;;;;;;11.45;4.10;;;;;;;;;;5004748;28;20498;-64
2022/09/08 11:02:17;;;;;;;6.40;3.63;;;;;;;;;;5005305;28;20036;-64
2022/09/08 11:04:45;;;;;;;4.00;3.10;;;;;;;;;;5005520;28;20029;-64
2022/09/08 11:07:30;;;;;;;;;;;;;;;;;;5007621;28;20032;-64
2022/09/08 11:10:28;;;;;;;5.07;3.35;;;;;;;;;;5004651;28;22093;-64
2022/09/08 11:13:09;;;;;;;6.38;3.70;;;;;;;;;;5005043;28;20471;-64
2022/09/08 11:15:43;;;;;;;4.68;3.20;;;;;;;;;;4987318;28;20312;-64
2022/09/08 11:18:22;;;;;;;5.20;3.28;;;;;;;;;;5004887;28;20446;-64
2022/09/08 11:20:51;;;;;;;5.55;2.83;;;;;;;;;;5004774;28;20020;-64
2022/09/08 11:23:38;;;;;;;4.53;3.10;;;;;;;;;;5004690;28;20382;-64
2022/09/08 11:26:22;;;;;;;7.35;3.47;;;;;;;;;;5004733;28;20028;-64
2022/09/08 11:28:52;;;;;;;7.55;3.03;;;;;;;;;;5004836;28;20362;-64
2022/09/08 11:31:32;;;;;;;8.75;3.63;;;;;;;;;;4986257;28;20515;-64
2022/09/08 11:34:42;;;;;;;5.20;3.05;;;;;;;;;;5004562;28;20443;-64
2022/09/08 11:37:30;;;;;;;4.85;3.03;;;;;;;;;;4926582;28;20478;-64
2022/09/08 11:40:30;;;;;;;9.43;3.85;;;;;;;;;;5004713;28;20402;-64
2022/09/08 11:43:13;;;;;;;5.80;3.22;;;;;;;;;;5005252;28;20429;-64
2022/09/08 11:46:03;;;;;;;5.80;2.95;;;;;;;;;;5004802;28;20464;-64
2022/09/08 11:48:50;;;;;;;4.07;3.40;;;;;;;;;;5006781;28;20496;-64
2022/09/08 11:51:42;;;;;;;5.47;3.53;;;;;;;;;;5005353;28;20071;-64
2022/09/08 11:54:36;;;;;;;9.43;3.22;;;;;;;;;;5006539;28;20422;-64
2022/09/08 11:57:30;;;;;;;8.80;4.07;;;;;;;;;;5006581;28;20538;-64
2022/09/08 12:00:19;;;;;;;8.80;4.18;;;;;;;;;;4987285;28;20029;-63
2022/09/08 12:03:12;;;;;;;3.95;3.08;;;;;;;;;;4987534;28;20323;-64
2022/09/08 12:05:53;;;;;;;5.35;3.28;;;;;;;;;;4987143;28;20431;-64
2022/09/08 12:08:52;;;;;;;8.27;4.40;;;;;;;;;;5005075;28;20320;-64
2022/09/08 12:11:54;;;;;;;7.22;3.78;;;;;;;;;;5005318;28;20469;-64
2022/09/08 12:14:41;;;;;;;4.13;3.45;;;;;;;;;;5006001;28;20485;-63
2022/09/08 12:17:32;;;;;;;5.18;3.50;;;;;;;;;;4986912;28;20419;-64
2022/09/08 12:20:13;;;;;;;5.90;3.78;;;;;;;;;;5005894;28;20408;-63
2022/09/08 12:23:16;;;;;;;4.75;3.20;;;;;;;;;;5004556;28;20462;-63
2022/09/08 12:25:54;;;;;;;6.30;3.92;;;;;;;;;;5006107;28;20512;-64
2022/09/08 12:28:51;;;;;;;5.85;4.50;;;;;;;;;;5005591;28;20366;-63
2022/09/08 12:31:22;;;;;;;6.72;3.75;;;;;;;;;;5004514;28;20431;-63
2022/09/08 12:34:12;;;;;;;8.82;4.25;;;;;;;;;;5004684;28;20382;-63
2022/09/08 12:36:49;;;;;;;4.80;4.00;;;;;;;;;;5004988;28;20367;-63
2022/09/08 12:39:52;;;;;;;7.03;4.57;;;;;;;;;;5005121;28;20359;-64
2022/09/08 12:42:50;;;;;;;7.18;4.03;;;;;;;;;;5004292;28;20351;-64
2022/09/08 12:45:22;;;;;;;7.03;4.10;;;;;;;;;;4982446;28;20344;-64
2022/09/08 12:47:47;;;;;;;5.50;4.15;;;;;;;;;;5005407;28;20446;-64
2022/09/08 12:50:20;;;;;;;6.72;4.22;;;;;;;;;;5004171;28;20415;-64
2022/09/08 12:53:07;;;;;;;6.43;4.05;;;;;;;;;;5004168;28;20036;-64
2022/09/08 12:55:34;;;;;;;6.78;4.13;;;;;;;;;;5004050;28;20440;-64
2022/09/08 12:58:04;;;;;;;8.15;4.38;;;;;;;;;;4986381;28;20032;-64
2022/09/08 13:00:35;;;;;;;6.45;3.83;;;;;;;;;;5004031;28;20366;-64
2022/09/08 13:03:19;;;;;;;11.23;4.57;;;;;;;;;;4986530;28;20393;-64
2022/09/08 13:06:00;;;;;;;5.53;4.10;;;;;;;;;;5003188;28;20458;-63
2022/09/08 13:08:44;;;;;;;7.45;4.90;;;;;;;;;;5004038;28;20437;-64
2022/09/08 13:11:36;;;;;;;8.00;4.88;;;;;;;;;;5004300;28;20466;-64
2022/09/08 13:14:07;;;;;;;9.27;5.15;;;;;;;;;;4985987;28;20508;-64
2022/09/08 13:16:37;;;;;;;11.20;4.57;;;;;;;;;;4985736;28;20036;-63
2022/09/08 13:19:05;;;;;;;7.70;5.38;;;;;;;;;;4986249;28;20425;-64
2022/09/08 13:21:39;;;;;;;7.18;4.38;;;;;;;;;;5003525;28;20379;-64
2022/09/08 13:24:10;;;;;;;9.02;4.88;;;;;;;;;;5003659;28;20508;-64
2022/09/08 13:26:48;;;;;;;9.55;4.80;;;;;;;;;;5003083;28;20482;-64
2022/09/08 13:29:32;;;;;;;6.32;4.80;;;;;;;;;;4984903;28;20375;-64
2022/09/08 13:32:28;;;;;;;7.75;5.72;;;;;;;;;;5003280;28;20059;-63
2022/09/08 13:35:15;;;;;;;7.45;4.80;;;;;;;;;;5003201;28;20462;-63
2022/09/08 13:37:50;;;;;;;6.22;4.70;;;;;;;;;;5003469;28;20507;-63
2022/09/08 13:40:19;;;;;;;9.93;4.97;;;;;;;;;;5002879;28;20508;-63
2022/09/08 13:43:02;;;;;;;6.88;5.00;;;;;;;;;;5003507;28;20044;-64
2022/09/08 13:45:47;;;;;;;9.95;5.50;;;;;;;;;;5004516;28;20332;-63
2022/09/08 13:48:50;;;;;;;6.47;4.75;;;;;;;;;;5002558;28;20538;-64
2022/09/08 13:51:24;;;;;;;6.50;4.75;;;;;;;;;;5002896;28;20343;-64
2022/09/08 13:54:11;;;;;;;9.57;5.45;;;;;;;;;;4984710;28;20324;-64
2022/09/08 13:57:07;;;;;;;11.00;5.30;;;;;;;;;;5003022;28;20097;-64
2022/09/08 13:59:44;;;;;;;8.80;4.90;;;;;;;;;;4984803;28;20358;-64
2022/09/08 14:02:49;;;;;;;7.25;4.40;;;;;;;;;;5002737;28;20374;-64
2022/09/08 14:05:22;;;;;;;6.72;4.55;;;;;;;;;;4974922;28;20392;-64
2022/09/08 14:07:52;;;;;;;9.77;5.85;;;;;;;;;;4985555;28;20466;-64
2022/09/08 14:10:37;;;;;;;9.10;5.38;;;;;;;;;;4984742;28;20153;-64
2022/09/08 14:13:15;;;;;;;7.82;5.25;;;;;;;;;;4985512;28;20447;-64
2022/09/08 14:15:45;;;;;;;8.15;5.43;;;;;;;;;;5003700;28;20438;-63
2022/09/08 14:18:19;;;;;;;8.35;5.18;;;;;;;;;;5007148;28;20343;-64
2022/09/08 14:20:54;;;;;;;9.52;5.35;;;;;;;;;;5007395;28;20463;-64
2022/09/08 14:23:40;;;;;;;8.05;5.40;;;;;;;;;;5001634;28;20332;-64
2022/09/08 14:26:22;;;;;;;6.70;5.13;;;;;;;;;;5007426;28;20028;-64
2022/09/08 14:29:15;;;;;;;8.07;5.40;;;;;;;;;;5007828;28;20370;-64
2022/09/08 14:31:46;;;;;;;7.35;5.30;;;;;;;;;;4990014;28;20461;-64
2022/09/08 14:34:17;;;;;;;7.75;5.78;;;;;;;;;;5007190;28;20051;-64
2022/09/08 14:36:58;;;;;;;7.35;5.40;;;;;;;;;;5006818;28;20404;-64
2022/09/08 14:39:25;;;;;;;9.48;5.90;;;;;;;;;;5006610;28;20320;-64
2022/09/08 14:41:55;;;;;;;7.57;5.30;;;;;;;;;;4988921;28;20435;-64
2022/09/08 14:45:03;;;;;;;10.43;6.35;;;;;;;;;;5008244;28;20439;-64
2022/09/08 14:47:30;;;;;;;10.80;5.85;;;;;;;;;;4993267;28;20505;-64
2022/09/08 14:50:29;;;;;;;7.15;5.00;;;;;;;;;;5006441;28;20481;-64
2022/09/08 14:53:16;;;;;;;9.13;6.55;;;;;;;;;;5006921;28;20486;-64
2022/09/08 14:56:02;;;;;;;9.40;5.30;;;;;;;;;;5006355;28;20462;-64
2022/09/08 14:58:43;;;;;;;7.88;5.80;;;;;;;;;;5006196;28;20366;-64
2022/09/08 15:01:36;;;;;;;6.15;5.15;;;;;;;;;;4988574;28;20413;-64
2022/09/08 15:04:11;;;;;;;8.95;6.10;;;;;;;;;;4983747;28;20134;-64
2022/09/08 15:06:40;;;;;;;7.90;6.50;;;;;;;;;;4988524;28;20435;-63
2022/09/08 15:09:25;;;;;;;7.97;5.97;;;;;;;;;;5006823;28;20362;-64
2022/09/08 15:12:12;;;;;;;7.75;5.43;;;;;;;;;;5007082;28;20464;-64
2022/09/08 15:15:30;;;;;;;6.88;5.78;;;;;;;;;;4988893;28;20363;-64
2022/09/08 15:17:56;;;;;;;7.60;6.43;;;;;;;;;;4924491;28;20584;-64
2022/09/08 15:20:41;;;;;;;6.93;6.15;;;;;;;;;;4997071;28;20435;-64
2022/09/08 15:23:27;;;;;;;9.70;6.15;;;;;;;;;;5004766;28;20439;-64
2022/09/08 15:26:05;;;;;;;10.00;6.75;;;;;;;;;;4641706;28;10002026;-64
2022/09/08 15:28:34;;;;;;;11.65;6.20;;;;;;;;;;5002952;28;20033;-64
2022/09/08 15:31:21;;;;;;;8.25;6.10;;;;;;;;;;5004363;28;20339;-64
2022/09/08 15:34:12;;;;;;;8.32;5.88;;;;;;;;;;5004115;28;20335;-64
2022/09/08 15:36:46;;;;;;;7.90;6.07;;;;;;;;;;5004379;28;20036;-64